Time;durP1;ratioP1;P1;durP2;ratioP2;P2;SDS_P1;SDS_P2;PMS_P1;PMS_P2;Temp;Humidity;BMP_temperature;BMP_pressure;BME280_temperature;BME280_humidity;BME280_pressure;Samples;Min_cycle;Max_cycle;Signal;HPM_P1;HPM_P2
2021/05/07 00:00:56;;;;;;;57.27;2.40;;;8.10;99.90;;;;;;5113498;28;20559;-68
2021/05/07 00:03:22;;;;;;;57.37;2.50;;;8.10;99.90;;;;;;5112862;28;20567;-68
2021/05/07 00:05:54;;;;;;;57.47;2.60;;;8.10;99.90;;;;;;5113211;28;20449;-68
2021/05/07 00:08:22;;;;;;;57.20;2.33;;;8.10;99.90;;;;;;5113561;28;20892;-68
2021/05/07 00:10:48;;;;;;;57.40;2.70;;;8.10;99.90;;;;;;5113377;28;20559;-68
2021/05/07 00:13:15;;;;;;;57.30;2.70;;;8.00;99.90;;;;;;5113027;28;20468;-68
2021/05/07 00:15:41;;;;;;;60.03;3.10;;;8.00;99.90;;;;;;5112891;28;20491;-68
2021/05/07 00:18:07;;;;;;;57.40;2.57;;;8.00;99.90;;;;;;5113081;28;20546;-68
2021/05/07 00:20:34;;;;;;;57.77;3.17;;;8.00;99.90;;;;;;5113070;28;20525;-68
2021/05/07 00:23:00;;;;;;;57.47;2.50;;;8.00;99.90;;;;;;5112568;28;21062;-68
2021/05/07 00:25:27;;;;;;;57.33;2.30;;;8.00;99.90;;;;;;5111881;28;20960;-68
2021/05/07 00:28:01;;;;;;;57.23;2.60;;;8.00;99.90;;;;;;5113198;28;20527;-68
2021/05/07 00:30:28;;;;;;;57.43;2.53;;;8.00;99.90;;;;;;5109947;28;20477;-67
2021/05/07 00:32:55;;;;;;;57.30;2.40;;;8.00;99.90;;;;;;5112560;28;20539;-68
2021/05/07 00:35:21;;;;;;;58.77;3.63;;;8.00;99.90;;;;;;5112534;28;20872;-68
2021/05/07 00:37:47;;;;;;;57.20;2.37;;;8.10;99.90;;;;;;5112613;28;20450;-68
2021/05/07 00:40:14;;;;;;;57.30;2.43;;;8.10;99.90;;;;;;5112745;28;20578;-68
2021/05/07 00:42:41;;;;;;;57.27;2.33;;;8.00;99.90;;;;;;5112430;28;20538;-68
2021/05/07 00:45:09;;;;;;;57.30;2.57;;;8.00;99.90;;;;;;5112323;28;20551;-67
2021/05/07 00:47:38;;;;;;;57.27;2.30;;;8.00;99.90;;;;;;5112878;28;20444;-67
2021/05/07 00:50:06;;;;;;;57.37;2.20;;;8.00;99.90;;;;;;5112640;28;20497;-67
2021/05/07 00:52:36;;;;;;;57.30;2.20;;;8.00;99.90;;;;;;5112288;28;20792;-67
2021/05/07 00:55:03;;;;;;;57.27;2.30;;;8.00;99.90;;;;;;5112291;28;20442;-67
2021/05/07 00:57:31;;;;;;;57.37;2.33;;;8.00;99.90;;;;;;5112229;28;20492;-67
2021/05/07 00:59:58;;;;;;;57.47;2.40;;;7.90;99.90;;;;;;5111911;28;20456;-67
2021/05/07 01:02:24;;;;;;;58.10;3.03;;;7.90;99.90;;;;;;5112139;28;20480;-67
2021/05/07 01:04:51;;;;;;;57.30;2.37;;;7.90;99.90;;;;;;5112304;28;20459;-67
2021/05/07 01:07:17;;;;;;;57.70;2.40;;;7.80;99.90;;;;;;5112293;28;20543;-67
2021/05/07 01:09:44;;;;;;;57.47;2.73;;;7.80;99.90;;;;;;5112708;28;20492;-68
2021/05/07 01:12:11;;;;;;;57.30;2.30;;;7.80;99.90;;;;;;5111600;28;20442;-65
2021/05/07 01:14:38;;;;;;;57.37;2.40;;;7.80;99.90;;;;;;5112068;28;21002;-65
2021/05/07 01:17:05;;;;;;;57.23;2.30;;;7.80;99.90;;;;;;5112051;28;20483;-65
2021/05/07 01:19:31;;;;;;;57.37;2.37;;;7.80;99.90;;;;;;5112094;28;20442;-66
2021/05/07 01:21:59;;;;;;;57.30;2.27;;;7.80;99.90;;;;;;5111700;28;20574;-66
2021/05/07 01:24:26;;;;;;;57.07;2.33;;;7.80;99.90;;;;;;5111844;28;20484;-66
2021/05/07 01:26:53;;;;;;;57.47;2.30;;;7.80;99.90;;;;;;5111810;28;20455;-66
2021/05/07 01:29:20;;;;;;;57.30;2.40;;;7.70;99.90;;;;;;5111869;28;20467;-66
2021/05/07 01:31:50;;;;;;;57.40;2.30;;;7.70;99.90;;;;;;5111870;28;20554;-66
2021/05/07 01:34:20;;;;;;;57.13;2.30;;;7.60;99.90;;;;;;5112230;28;20452;-66
2021/05/07 01:36:46;;;;;;;57.37;2.20;;;7.60;99.90;;;;;;5111813;28;20454;-66
2021/05/07 01:39:13;;;;;;;56.97;2.20;;;7.50;99.90;;;;;;5111771;28;20640;-67
2021/05/07 01:41:39;;;;;;;57.27;2.37;;;7.50;99.90;;;;;;5111031;28;20566;-66
2021/05/07 01:44:06;;;;;;;57.47;2.60;;;7.40;99.90;;;;;;5111341;28;20780;-66
2021/05/07 01:46:33;;;;;;;57.43;2.23;;;7.40;99.90;;;;;;5111691;28;20450;-67
2021/05/07 01:48:59;;;;;;;57.37;2.17;;;7.30;99.90;;;;;;5111749;28;20454;-66
2021/05/07 01:51:26;;;;;;;57.30;2.60;;;7.30;99.90;;;;;;5111737;28;20555;-67
2021/05/07 01:53:52;;;;;;;57.47;2.50;;;7.30;99.90;;;;;;5111173;28;20875;-67
2021/05/07 01:56:19;;;;;;;57.47;2.50;;;7.20;99.90;;;;;;5111612;28;20442;-66
2021/05/07 01:58:46;;;;;;;57.17;2.33;;;7.20;99.90;;;;;;5111784;28;20202;-67
2021/05/07 02:01:12;;;;;;;57.37;2.30;;;7.20;99.90;;;;;;5111258;28;20995;-66
2021/05/07 02:03:38;;;;;;;57.50;2.70;;;7.10;99.90;;;;;;5111189;28;20997;-66
2021/05/07 02:06:04;;;;;;;57.17;2.37;;;7.10;99.90;;;;;;5111552;28;20452;-67
2021/05/07 02:08:31;;;;;;;57.37;2.20;;;7.10;99.90;;;;;;5111406;28;20916;-66
2021/05/07 02:10:57;;;;;;;57.58;2.50;;;7.10;99.90;;;;;;5111893;28;20464;-67
2021/05/07 02:13:24;;;;;;;57.33;2.60;;;7.10;99.90;;;;;;5111510;28;20781;-67
2021/05/07 02:15:51;;;;;;;57.50;2.55;;;7.10;99.90;;;;;;5111394;28;20534;-66
2021/05/07 02:18:18;;;;;;;57.38;2.42;;;7.10;99.90;;;;;;5111677;28;20225;-66
2021/05/07 02:20:46;;;;;;;57.37;2.57;;;7.00;99.90;;;;;;5111357;28;20312;-66
2021/05/07 02:23:14;;;;;;;57.30;2.30;;;7.00;99.90;;;;;;5111246;28;20518;-66
2021/05/07 02:25:41;;;;;;;57.37;2.30;;;7.00;99.90;;;;;;5111255;28;20828;-67
2021/05/07 02:28:07;;;;;;;57.47;2.50;;;7.00;99.90;;;;;;5111497;28;20538;-66
2021/05/07 02:30:34;;;;;;;57.43;2.60;;;7.00;99.90;;;;;;5110863;28;21025;-66
2021/05/07 02:33:01;;;;;;;57.33;2.30;;;7.00;99.90;;;;;;5110952;28;20525;-66
2021/05/07 02:35:28;;;;;;;57.35;2.40;;;7.00;99.90;;;;;;5110995;28;20887;-67
2021/05/07 02:37:54;;;;;;;57.40;2.40;;;7.00;99.90;;;;;;5111211;28;20210;-66
2021/05/07 02:40:20;;;;;;;57.07;2.30;;;7.00;99.90;;;;;;5111264;28;20943;-66
2021/05/07 02:42:47;;;;;;;57.37;2.70;;;7.00;99.90;;;;;;5110812;28;20845;-66
2021/05/07 02:45:14;;;;;;;57.58;2.60;;;6.90;99.90;;;;;;5111357;28;20532;-67
2021/05/07 02:47:42;;;;;;;57.07;2.20;;;6.90;99.90;;;;;;5111299;28;20292;-67
2021/05/07 02:50:10;;;;;;;57.50;2.40;;;6.90;99.90;;;;;;5111021;28;20472;-67
2021/05/07 02:52:37;;;;;;;57.20;2.23;;;6.90;99.90;;;;;;5111176;28;20708;-66
2021/05/07 02:55:05;;;;;;;57.28;2.08;;;6.90;99.90;;;;;;5112843;28;20457;-66
2021/05/07 02:57:31;;;;;;;57.27;2.13;;;6.90;99.90;;;;;;5114927;28;20204;-66
2021/05/07 02:59:57;;;;;;;57.13;2.40;;;6.90;99.90;;;;;;5114759;28;20550;-66
2021/05/07 03:02:24;;;;;;;57.47;2.40;;;6.90;99.90;;;;;;5113464;28;20603;-66
2021/05/07 03:04:51;;;;;;;57.35;2.53;;;6.90;99.90;;;;;;5111944;28;20312;-67
2021/05/07 03:07:17;;;;;;;57.38;2.50;;;6.90;99.90;;;;;;5114526;28;20229;-66
2021/05/07 03:09:44;;;;;;;57.33;2.37;;;6.90;99.90;;;;;;5114643;28;20212;-66
2021/05/07 03:12:10;;;;;;;57.17;2.20;;;6.90;99.90;;;;;;5114331;28;20486;-66
2021/05/07 03:14:36;;;;;;;57.37;2.40;;;6.90;99.90;;;;;;5114296;28;20280;-66
2021/05/07 03:17:03;;;;;;;57.15;2.30;;;6.90;99.90;;;;;;5113974;28;20547;-66
2021/05/07 03:19:29;;;;;;;57.43;2.30;;;6.90;99.90;;;;;;5114361;28;20235;-67
2021/05/07 03:21:56;;;;;;;57.50;2.30;;;6.90;99.90;;;;;;5114134;28;20520;-66
2021/05/07 03:24:23;;;;;;;57.25;2.40;;;6.90;99.90;;;;;;5114159;28;20220;-66
2021/05/07 03:26:49;;;;;;;57.28;2.30;;;6.90;99.90;;;;;;5114232;28;20204;-66
2021/05/07 03:29:15;;;;;;;57.47;2.50;;;6.90;99.90;;;;;;5114054;28;20269;-67
2021/05/07 03:31:42;;;;;;;57.37;2.47;;;6.90;99.90;;;;;;5113853;28;20741;-67
2021/05/07 03:34:08;;;;;;;57.70;3.10;;;6.90;99.90;;;;;;5113652;28;20434;-67
2021/05/07 03:36:34;;;;;;;57.80;3.00;;;6.90;99.90;;;;;;5113703;28;20535;-67
2021/05/07 03:39:02;;;;;;;57.38;2.58;;;6.90;99.90;;;;;;5113985;28;20502;-67
2021/05/07 03:41:30;;;;;;;56.97;2.50;;;6.90;99.90;;;;;;5113970;28;20302;-67
2021/05/07 03:43:56;;;;;;;57.40;2.50;;;6.90;99.90;;;;;;5113379;28;20480;-67
2021/05/07 03:46:23;;;;;;;57.50;2.80;;;6.90;99.90;;;;;;5113730;28;20491;-67
2021/05/07 03:48:49;;;;;;;57.58;2.65;;;6.90;99.90;;;;;;5114028;28;20476;-67
2021/05/07 03:51:16;;;;;;;57.30;2.40;;;6.90;99.90;;;;;;5113657;28;20226;-67
2021/05/07 03:53:42;;;;;;;57.58;2.90;;;6.90;99.90;;;;;;5113271;28;20555;-67
2021/05/07 03:56:09;;;;;;;57.35;2.70;;;6.90;99.90;;;;;;5113842;28;20209;-67
2021/05/07 03:58:35;;;;;;;57.50;2.50;;;6.90;99.90;;;;;;5113589;28;20207;-67
2021/05/07 04:01:04;;;;;;;57.27;2.40;;;6.90;99.90;;;;;;5113425;28;20319;-67
2021/05/07 04:03:31;;;;;;;57.50;2.40;;;6.90;99.90;;;;;;5113017;28;20482;-67
2021/05/07 04:05:57;;;;;;;57.47;2.40;;;6.80;99.90;;;;;;5112222;28;20447;-67
2021/05/07 04:08:26;;;;;;;57.17;2.50;;;6.90;99.90;;;;;;5110834;28;20264;-67
2021/05/07 04:10:56;;;;;;;57.40;2.50;;;6.80;99.90;;;;;;5113438;28;20842;-67
2021/05/07 04:13:33;;;;;;;57.37;2.50;;;6.80;99.90;;;;;;5112887;28;20492;-68
2021/05/07 04:16:00;;;;;;;57.47;2.50;;;6.80;99.90;;;;;;5113330;27;20494;-68
2021/05/07 04:18:26;;;;;;;57.40;2.47;;;6.80;99.90;;;;;;5113227;28;20446;-68
2021/05/07 04:20:53;;;;;;;57.17;2.40;;;6.80;99.90;;;;;;5113625;28;20224;-68
2021/05/07 04:23:19;;;;;;;57.37;2.37;;;6.80;99.90;;;;;;5112652;28;20478;-68
2021/05/07 04:25:46;;;;;;;58.03;2.80;;;6.80;99.90;;;;;;5112591;28;20451;-69
2021/05/07 04:28:12;;;;;;;57.70;2.60;;;6.80;99.90;;;;;;5112965;28;20543;-69
2021/05/07 04:30:39;;;;;;;57.63;2.85;;;6.80;99.90;;;;;;5113002;28;21010;-69
2021/05/07 04:33:06;;;;;;;57.40;2.40;;;6.80;99.90;;;;;;5112907;28;20204;-69
2021/05/07 04:35:32;;;;;;;57.63;2.58;;;6.80;99.90;;;;;;5112596;28;20450;-69
2021/05/07 04:37:59;;;;;;;57.27;2.40;;;6.80;99.90;;;;;;5103223;28;20317;-70
2021/05/07 04:40:25;;;;;;;57.23;2.37;;;6.80;99.90;;;;;;5101192;28;21014;-69
2021/05/07 04:42:51;;;;;;;57.45;2.45;;;6.80;99.90;;;;;;5112554;28;20974;-69
2021/05/07 04:45:18;;;;;;;57.17;2.30;;;6.90;99.90;;;;;;5112898;28;20209;-69
2021/05/07 04:47:45;;;;;;;56.90;2.30;;;6.90;99.90;;;;;;5112830;28;20445;-69
2021/05/07 04:50:13;;;;;;;57.38;2.22;;;6.90;99.90;;;;;;5112832;28;20990;-70
2021/05/07 04:52:40;;;;;;;57.70;2.72;;;6.90;99.90;;;;;;5112217;28;20215;-70
2021/05/07 04:55:07;;;;;;;57.17;2.60;;;6.90;99.90;;;;;;5112285;28;20301;-70
2021/05/07 04:57:34;;;;;;;57.40;2.53;;;6.90;99.90;;;;;;5112910;28;20438;-70
2021/05/07 05:00:00;;;;;;;57.17;2.50;;;6.90;99.90;;;;;;5112596;28;20456;-71
2021/05/07 05:02:29;;;;;;;57.58;2.60;;;6.90;99.90;;;;;;5112074;28;21041;-70
2021/05/07 05:04:56;;;;;;;57.80;2.60;;;6.90;99.90;;;;;;5112207;28;20300;-71
2021/05/07 05:07:22;;;;;;;57.40;2.40;;;6.80;99.90;;;;;;5112474;28;20240;-71
2021/05/07 05:09:49;;;;;;;57.50;2.60;;;6.80;99.90;;;;;;5097446;28;20491;-70
2021/05/07 05:12:15;;;;;;;57.58;2.38;;;6.70;99.90;;;;;;5105561;28;20212;-70
2021/05/07 05:14:42;;;;;;;57.30;2.43;;;6.70;99.90;;;;;;5112284;28;20227;-70
2021/05/07 05:17:08;;;;;;;57.47;2.40;;;6.70;99.90;;;;;;5111415;28;20545;-70
2021/05/07 05:19:34;;;;;;;57.27;2.53;;;6.60;99.90;;;;;;5112456;28;20248;-70
2021/05/07 05:22:01;;;;;;;57.47;2.50;;;6.60;99.90;;;;;;5111527;28;20561;-70
2021/05/07 05:24:28;;;;;;;57.45;2.28;;;6.60;99.90;;;;;;5111878;28;20763;-70
2021/05/07 05:26:55;;;;;;;57.28;2.47;;;6.60;99.90;;;;;;5112091;27;20293;-70
2021/05/07 05:29:21;;;;;;;57.50;2.30;;;6.60;99.90;;;;;;5112253;28;20205;-70
2021/05/07 05:31:47;;;;;;;57.77;3.30;;;6.60;99.90;;;;;;5112035;28;20552;-70
2021/05/07 05:34:14;;;;;;;58.22;2.50;;;6.60;99.90;;;;;;5111481;28;20542;-70
2021/05/07 05:36:45;;;;;;;57.78;2.60;;;6.70;99.90;;;;;;5111736;28;20208;-70
2021/05/07 05:39:14;;;;;;;57.53;2.23;;;6.70;99.90;;;;;;5112217;28;20216;-70
2021/05/07 05:41:41;;;;;;;58.10;3.00;;;6.80;99.90;;;;;;5091537;28;20524;-70
2021/05/07 05:44:08;;;;;;;57.43;2.60;;;6.80;99.90;;;;;;5111332;28;20486;-69
2021/05/07 05:46:36;;;;;;;57.58;2.50;;;6.90;99.90;;;;;;5110902;28;20507;-69
2021/05/07 05:49:02;;;;;;;57.45;2.28;;;6.90;99.90;;;;;;5109920;28;20209;-69
2021/05/07 05:51:28;;;;;;;57.53;2.57;;;6.90;99.90;;;;;;5109745;28;20231;-69
2021/05/07 05:53:55;;;;;;;57.47;2.78;;;6.90;99.90;;;;;;5109310;28;20947;-69
2021/05/07 05:56:22;;;;;;;57.13;2.20;;;6.90;99.90;;;;;;5110023;28;20214;-69
2021/05/07 05:58:48;;;;;;;57.50;2.83;;;6.80;99.90;;;;;;5110443;28;20450;-69
2021/05/07 06:01:15;;;;;;;57.67;2.60;;;6.80;99.90;;;;;;5110834;28;20520;-69
2021/05/07 06:03:41;;;;;;;57.35;2.50;;;6.80;99.90;;;;;;5111023;28;20711;-69
2021/05/07 06:06:08;;;;;;;57.40;2.60;;;6.80;99.90;;;;;;5111998;28;20744;-69
2021/05/07 06:08:34;;;;;;;57.28;2.20;;;6.80;99.90;;;;;;5111764;28;20483;-69
2021/05/07 06:11:00;;;;;;;57.50;2.40;;;6.80;99.90;;;;;;5108238;28;20256;-69
2021/05/07 06:13:27;;;;;;;57.55;2.38;;;6.80;99.90;;;;;;5111915;28;20681;-69
2021/05/07 06:15:54;;;;;;;57.17;2.50;;;6.80;99.90;;;;;;5111702;28;20252;-69
2021/05/07 06:18:20;;;;;;;57.43;2.50;;;6.80;99.90;;;;;;5111796;28;20478;-69
2021/05/07 06:20:47;;;;;;;57.40;2.70;;;6.80;99.90;;;;;;5111809;28;20888;-69
2021/05/07 06:23:13;;;;;;;57.25;2.70;;;6.80;99.90;;;;;;5111506;28;20486;-69
2021/05/07 06:25:39;;;;;;;57.37;2.87;;;6.80;99.90;;;;;;5111460;28;20645;-69
2021/05/07 06:28:05;;;;;;;57.53;2.80;;;6.80;99.90;;;;;;5112104;28;20488;-69
2021/05/07 06:30:33;;;;;;;57.38;2.42;;;6.80;99.90;;;;;;5115378;28;20650;-69
2021/05/07 06:32:59;;;;;;;57.50;2.55;;;6.80;99.90;;;;;;5115026;28;20301;-69
2021/05/07 06:35:26;;;;;;;57.37;2.57;;;6.80;99.90;;;;;;5115400;28;20213;-69
2021/05/07 06:37:53;;;;;;;57.70;2.50;;;6.80;99.90;;;;;;5115476;28;20533;-69
2021/05/07 06:40:20;;;;;;;57.77;3.10;;;6.80;99.90;;;;;;5115378;27;20285;-69
2021/05/07 06:42:48;;;;;;;57.47;2.50;;;6.80;99.90;;;;;;5110698;28;20931;-68
2021/05/07 06:45:16;;;;;;;57.42;2.60;;;6.80;99.90;;;;;;5114709;28;20822;-68
2021/05/07 06:47:44;;;;;;;57.60;2.50;;;6.80;99.90;;;;;;5115460;28;20298;-69
2021/05/07 06:50:12;;;;;;;57.37;2.57;;;6.80;99.90;;;;;;5115291;28;20231;-69
2021/05/07 06:52:38;;;;;;;57.37;2.50;;;6.90;99.90;;;;;;5114852;28;20482;-69
2021/05/07 06:55:06;;;;;;;57.20;2.43;;;6.90;99.90;;;;;;5114962;28;20478;-69
2021/05/07 06:57:33;;;;;;;57.70;3.33;;;7.00;99.90;;;;;;5115468;28;20447;-69
2021/05/07 06:59:59;;;;;;;57.27;2.33;;;7.00;99.90;;;;;;5114697;28;20587;-69
2021/05/07 07:02:25;;;;;;;57.30;2.43;;;7.10;99.90;;;;;;5114989;28;20534;-69
2021/05/07 07:04:53;;;;;;;57.57;2.80;;;7.20;99.90;;;;;;5114150;28;20479;-69
2021/05/07 07:07:19;;;;;;;57.13;2.60;;;7.20;99.90;;;;;;5114956;28;20803;-69
2021/05/07 07:09:45;;;;;;;57.60;2.50;;;7.30;99.90;;;;;;5114495;28;20538;-69
2021/05/07 07:12:13;;;;;;;57.33;2.40;;;7.30;99.90;;;;;;5114372;28;20549;-69
2021/05/07 07:14:39;;;;;;;57.23;2.37;;;7.30;99.90;;;;;;5114412;28;20506;-69
2021/05/07 07:17:06;;;;;;;57.70;2.40;;;7.30;99.90;;;;;;5114702;28;20616;-69
2021/05/07 07:19:33;;;;;;;57.70;3.23;;;7.30;99.90;;;;;;5114674;28;20859;-68
2021/05/07 07:22:00;;;;;;;57.53;2.70;;;7.20;99.90;;;;;;5114222;28;20557;-68
2021/05/07 07:24:26;;;;;;;57.30;2.70;;;7.20;99.90;;;;;;5114496;28;20480;-68
2021/05/07 07:26:53;;;;;;;57.85;3.42;;;7.20;99.90;;;;;;5114510;28;21019;-68
2021/05/07 07:29:20;;;;;;;57.27;2.70;;;7.20;99.90;;;;;;5114230;28;20762;-68
2021/05/07 07:31:46;;;;;;;57.37;2.53;;;7.20;99.90;;;;;;5114607;28;20475;-68
2021/05/07 07:34:12;;;;;;;57.80;2.80;;;7.30;99.90;;;;;;5113738;28;20439;-68
2021/05/07 07:36:39;;;;;;;57.80;2.97;;;7.30;99.90;;;;;;5114183;28;21013;-68
2021/05/07 07:39:07;;;;;;;57.27;2.50;;;7.40;99.90;;;;;;5113560;28;20454;-68
2021/05/07 07:41:34;;;;;;;57.50;2.80;;;7.50;99.90;;;;;;5113125;28;20502;-67
2021/05/07 07:44:00;;;;;;;57.60;2.83;;;7.50;99.90;;;;;;5113344;28;20579;-68
2021/05/07 07:46:28;;;;;;;57.27;2.50;;;7.60;99.90;;;;;;5100348;28;20545;-68
2021/05/07 07:48:54;;;;;;;58.10;3.25;;;7.60;99.90;;;;;;5093302;28;21000;-68
2021/05/07 07:51:21;;;;;;;57.40;2.90;;;7.70;99.90;;;;;;5093938;28;20235;-68
2021/05/07 07:53:47;;;;;;;58.20;3.10;;;7.70;99.90;;;;;;5093065;28;20440;-68
2021/05/07 07:56:14;;;;;;;58.60;3.93;;;7.80;99.90;;;;;;5093242;28;20540;-68
2021/05/07 07:58:41;;;;;;;57.33;2.90;;;7.80;99.90;;;;;;5093506;28;20444;-68
2021/05/07 08:01:07;;;;;;;57.37;2.50;;;8.00;99.90;;;;;;5092612;28;20464;-68
2021/05/07 08:03:33;;;;;;;57.50;3.10;;;8.00;99.90;;;;;;5091079;28;20529;-68
2021/05/07 08:06:00;;;;;;;57.70;3.20;;;8.00;99.90;;;;;;5091271;28;20881;-68
2021/05/07 08:08:26;;;;;;;57.80;2.80;;;8.10;99.90;;;;;;5091312;28;20448;-68
2021/05/07 08:10:52;;;;;;;58.17;2.60;;;8.40;99.90;;;;;;5091371;28;20469;-68
2021/05/07 08:13:19;;;;;;;57.57;2.90;;;8.60;99.90;;;;;;5091346;28;20440;-68
2021/05/07 08:15:46;;;;;;;57.47;2.50;;;8.80;99.90;;;;;;5090178;28;20953;-68
2021/05/07 08:18:13;;;;;;;57.47;2.57;;;9.00;99.90;;;;;;5106129;28;20466;-68
2021/05/07 08:20:40;;;;;;;58.07;3.50;;;9.30;99.90;;;;;;5113214;28;20582;-68
2021/05/07 08:23:06;;;;;;;57.23;2.67;;;9.50;99.90;;;;;;5112877;28;20572;-67
2021/05/07 08:25:32;;;;;;;57.60;2.50;;;9.60;99.90;;;;;;5112785;28;20539;-68
2021/05/07 08:27:59;;;;;;;57.77;2.60;;;9.60;99.90;;;;;;5113404;28;20716;-67
2021/05/07 08:30:26;;;;;;;58.10;3.10;;;9.70;99.90;;;;;;5113210;28;20551;-67
2021/05/07 08:32:52;;;;;;;57.30;2.80;;;9.90;99.90;;;;;;5112857;28;20878;-67
2021/05/07 08:35:19;;;;;;;57.40;2.50;;;10.00;99.90;;;;;;5112896;27;20473;-67
2021/05/07 08:37:45;;;;;;;58.97;3.47;;;10.00;99.90;;;;;;5112906;28;20449;-67
2021/05/07 08:40:14;;;;;;;57.30;2.43;;;10.10;99.90;;;;;;5112742;28;20560;-67
2021/05/07 08:42:40;;;;;;;57.50;2.90;;;10.00;97.10;;;;;;5112616;28;21009;-67
2021/05/07 08:45:09;;;;;;;60.10;3.23;;;10.00;98.70;;;;;;5112748;28;20619;-67
2021/05/07 08:47:36;;;;;;;57.97;3.13;;;9.90;98.80;;;;;;5109181;28;21000;-67
2021/05/07 08:50:05;;;;;;;58.77;3.70;;;9.60;97.90;;;;;;5112822;28;20796;-67
2021/05/07 08:52:31;;;;;;;57.60;2.97;;;9.50;93.40;;;;;;5112226;28;20536;-67
2021/05/07 08:54:58;;;;;;;58.77;3.63;;;9.50;99.90;;;;;;5112393;28;20508;-68
2021/05/07 08:57:25;;;;;;;57.57;2.90;;;9.60;99.90;;;;;;5112748;28;20452;-68
2021/05/07 08:59:51;;;;;;;57.50;2.40;;;9.80;99.90;;;;;;5112677;28;20449;-68
2021/05/07 09:02:25;;;;;;;57.37;2.40;;;10.00;99.90;;;;;;5112293;28;20875;-68
2021/05/07 09:04:55;;;;;;;58.50;3.73;;;10.00;95.30;;;;;;5112143;28;20481;-67
2021/05/07 09:07:22;;;;;;;57.60;2.80;;;10.00;98.40;;;;;;5112552;28;20834;-68
2021/05/07 09:09:52;;;;;;;57.67;2.87;;;10.20;94.80;;;;;;5112429;28;20445;-67
2021/05/07 09:12:26;;;;;;;57.40;2.90;;;10.40;99.90;;;;;;5112161;28;20453;-65
2021/05/07 09:14:53;;;;;;;57.53;3.20;;;10.60;90.10;;;;;;5112394;28;20475;-67
2021/05/07 09:17:21;;;;;;;57.30;2.30;;;10.50;81.00;;;;;;5112289;28;20457;-67
2021/05/07 09:19:48;;;;;;;57.07;2.40;;;10.20;62.00;;;;;;5108524;28;20459;-68
2021/05/07 09:22:26;;;;;;;57.30;2.50;;;10.00;71.40;;;;;;5111854;28;20499;-67
2021/05/07 09:25:13;;;;;;;57.93;3.17;;;10.30;73.10;;;;;;5111977;28;20569;-67
2021/05/07 09:27:40;;;;;;;57.80;3.37;;;10.50;69.80;;;;;;5112406;28;20865;-67
2021/05/07 09:30:22;;;;;;;57.70;2.67;;;10.40;61.00;;;;;;5111898;28;20544;-67
2021/05/07 09:32:50;;;;;;;57.50;2.70;;;10.10;61.20;;;;;;5111732;28;20943;-67
2021/05/07 09:35:17;;;;;;;57.97;2.63;;;9.80;65.00;;;;;;5111925;28;20448;-67
2021/05/07 09:37:44;;;;;;;57.70;2.60;;;9.70;63.70;;;;;;5112193;28;20441;-67
2021/05/07 09:40:13;;;;;;;58.77;3.53;;;9.80;68.10;;;;;;5112451;28;20494;-67
2021/05/07 09:42:40;;;;;;;57.60;3.30;;;10.00;64.00;;;;;;5111488;28;20933;-67
2021/05/07 09:45:18;;;;;;;57.27;2.53;;;10.20;72.00;;;;;;5111912;28;20986;-67
2021/05/07 09:47:47;;;;;;;58.00;3.13;;;10.60;61.20;;;;;;5112198;28;20441;-67
2021/05/07 09:50:14;;;;;;;57.97;2.80;;;10.80;43.80;;;;;;5098653;28;20470;-67
2021/05/07 09:52:40;;;;;;;57.60;2.80;;;10.70;35.80;;;;;;5103420;28;20441;-67
2021/05/07 09:55:09;;;;;;;58.07;3.47;;;10.50;43.20;;;;;;5111512;28;20443;-67
2021/05/07 09:57:36;;;;;;;57.47;2.60;;;10.70;55.30;;;;;;5112090;28;20525;-67
2021/05/07 10:00:03;;;;;;;57.50;2.57;;;11.00;63.80;;;;;;5111828;28;20540;-67
2021/05/07 10:02:31;;;;;;;57.77;2.73;;;11.00;59.80;;;;;;5111668;28;20885;-67
2021/05/07 10:04:58;;;;;;;57.57;2.70;;;10.90;52.00;;;;;;5115356;28;20481;-67
2021/05/07 10:07:27;;;;;;;57.13;2.37;;;10.80;37.30;;;;;;5115843;28;20448;-67
2021/05/07 10:10:01;;;;;;;58.83;3.03;;;10.90;35.50;;;;;;5115701;28;20957;-67
2021/05/07 10:12:29;;;;;;;57.23;2.70;;;11.40;29.50;;;;;;5115441;28;20449;-67
2021/05/07 10:14:56;;;;;;;57.80;2.83;;;12.30;26.60;;;;;;5115490;28;20480;-67
2021/05/07 10:17:22;;;;;;;57.37;2.70;;;13.00;18.50;;;;;;5115730;28;20457;-67
2021/05/07 10:19:49;;;;;;;57.23;2.40;;;13.30;15.40;;;;;;5115087;28;20490;-67
2021/05/07 10:22:16;;;;;;;57.60;2.97;;;14.00;15.20;;;;;;5112681;28;20446;-66
2021/05/07 10:24:43;;;;;;;57.43;2.70;;;14.70;14.00;;;;;;5115415;28;20525;-66
2021/05/07 10:27:17;;;;;;;57.27;2.30;;;14.60;10.80;;;;;;5115688;28;20875;-67
2021/05/07 10:29:55;;;;;;;57.43;2.50;;;14.50;8.50;;;;;;5115901;28;20543;-67
2021/05/07 10:32:32;;;;;;;57.40;2.80;;;14.90;8.20;;;;;;5114997;28;20451;-67
2021/05/07 10:34:59;;;;;;;57.37;2.30;;;15.00;11.00;;;;;;5115196;28;20447;-66
2021/05/07 10:37:36;;;;;;;58.47;2.80;;;15.30;8.50;;;;;;5115645;28;20452;-67
2021/05/07 10:40:04;;;;;;;57.33;2.80;;;16.40;6.00;;;;;;5115467;28;20448;-67
2021/05/07 10:42:30;;;;;;;57.47;2.70;;;17.10;1.60;;;;;;5114899;28;20441;-66
2021/05/07 10:44:58;;;;;;;57.63;2.47;;;17.30;1.10;;;;;;5114777;28;20922;-67
2021/05/07 10:47:32;;;;;;;58.20;2.80;;;16.50;1.00;;;;;;5115441;28;20606;-67
2021/05/07 10:49:59;;;;;;;58.27;3.50;;;15.00;1.70;;;;;;5115254;28;20692;-66
2021/05/07 10:52:37;;;;;;;57.50;2.37;;;13.90;8.10;;;;;;5112029;28;20498;-67
2021/05/07 10:55:06;;;;;;;57.40;2.63;;;13.10;6.90;;;;;;5114714;28;20446;-67
2021/05/07 10:57:35;;;;;;;57.37;2.30;;;12.40;5.50;;;;;;5114864;27;20955;-66
2021/05/07 11:00:06;;;;;;;57.83;2.80;;;12.00;1.00;;;;;;5115070;28;20480;-66
2021/05/07 11:02:42;;;;;;;57.30;2.57;;;11.90;7.10;;;;;;5114704;28;20532;-66
2021/05/07 11:05:10;;;;;;;62.07;2.83;;;12.60;6.30;;;;;;5114478;28;20477;-66
2021/05/07 11:07:36;;;;;;;57.23;2.30;;;13.10;4.30;;;;;;5114942;28;20460;-67
2021/05/07 11:10:04;;;;;;;57.67;2.40;;;14.50;5.80;;;;;;5114560;28;20531;-66
2021/05/07 11:12:31;;;;;;;57.33;2.40;;;14.50;5.70;;;;;;5114403;28;20558;-66
2021/05/07 11:14:57;;;;;;;57.27;2.50;;;14.10;8.70;;;;;;5113077;28;20524;-66
2021/05/07 11:17:24;;;;;;;57.60;2.90;;;14.30;3.90;;;;;;5114623;27;20550;-66
2021/05/07 11:19:51;;;;;;;58.30;2.60;;;15.30;4.10;;;;;;5114504;28;20543;-66
2021/05/07 11:22:23;;;;;;;57.20;2.47;;;16.60;5.00;;;;;;5114132;28;20540;-66
2021/05/07 11:24:50;;;;;;;57.97;2.73;;;17.40;4.60;;;;;;5114419;28;21062;-66
2021/05/07 11:27:20;;;;;;;57.53;2.50;;;18.00;1.30;;;;;;5114537;28;20821;-66
2021/05/07 11:29:47;;;;;;;58.27;2.90;;;18.20;1.00;;;;;;5114297;28;20535;-64
2021/05/07 11:32:15;;;;;;;58.27;2.83;;;18.60;1.00;;;;;;5114024;28;20536;-65
2021/05/07 11:34:49;;;;;;;58.40;3.00;;;19.00;3.30;;;;;;5114120;28;20448;-67
2021/05/07 11:37:15;;;;;;;57.17;2.30;;;19.20;2.10;;;;;;5114206;28;20454;-65
2021/05/07 11:39:42;;;;;;;57.70;2.70;;;18.60;1.00;;;;;;5114383;27;20550;-66
2021/05/07 11:42:10;;;;;;;57.90;2.57;;;18.00;1.00;;;;;;5113967;28;20952;-66
2021/05/07 11:44:47;;;;;;;57.80;2.50;;;17.50;1.00;;;;;;5113954;28;20485;-67
2021/05/07 11:47:14;;;;;;;57.50;2.37;;;17.70;2.60;;;;;;5114012;28;20455;-65
2021/05/07 11:49:47;;;;;;;57.53;2.50;;;17.10;1.00;;;;;;5113885;28;20446;-66
2021/05/07 11:52:14;;;;;;;57.50;2.10;;;16.50;2.10;;;;;;5113951;28;20779;-66
2021/05/07 11:54:42;;;;;;;57.40;2.50;;;16.00;4.20;;;;;;5113420;28;20996;-66
2021/05/07 11:57:09;;;;;;;57.13;2.30;;;15.80;1.00;;;;;;5113819;28;20479;-66
2021/05/07 11:59:39;;;;;;;57.37;2.53;;;15.10;1.00;;;;;;5113763;28;20440;-66
2021/05/07 12:02:06;;;;;;;58.27;2.80;;;14.20;1.00;;;;;;5113336;28;20475;-66
2021/05/07 12:04:43;;;;;;;58.27;2.63;;;13.80;2.00;;;;;;5113719;28;20985;-66
2021/05/07 12:07:29;;;;;;;57.70;2.80;;;13.70;4.50;;;;;;5113602;28;20489;-66
2021/05/07 12:09:57;;;;;;;57.67;2.70;;;13.70;1.20;;;;;;5113659;28;20449;-66
2021/05/07 12:12:26;;;;;;;57.47;2.50;;;13.30;2.00;;;;;;5113045;28;20442;-66
2021/05/07 12:15:01;;;;;;;57.40;2.50;;;12.90;2.80;;;;;;5113345;28;20449;-67
2021/05/07 12:17:38;;;;;;;59.80;2.57;;;12.90;1.00;;;;;;5113425;28;20462;-65
2021/05/07 12:20:05;;;;;;;57.27;2.57;;;12.80;1.10;;;;;;5112285;28;20449;-66
2021/05/07 12:22:34;;;;;;;57.27;2.40;;;12.60;6.70;;;;;;5112802;28;20481;-65
2021/05/07 12:25:10;;;;;;;57.43;2.43;;;13.70;5.70;;;;;;5112388;28;20486;-65
2021/05/07 12:27:38;;;;;;;58.97;2.83;;;14.00;1.00;;;;;;5112595;28;20585;-65
2021/05/07 12:30:17;;;;;;;57.40;2.23;;;13.60;1.00;;;;;;5112109;28;20446;-64
2021/05/07 12:32:52;;;;;;;57.43;2.60;;;13.20;1.10;;;;;;5112804;28;20468;-65
2021/05/07 12:35:18;;;;;;;57.20;2.40;;;12.80;2.30;;;;;;5112612;28;20890;-65
2021/05/07 12:37:46;;;;;;;57.40;2.33;;;12.70;1.40;;;;;;5112965;28;20868;-64
2021/05/07 12:40:13;;;;;;;57.70;2.70;;;12.30;1.50;;;;;;5112265;27;20468;-64
2021/05/07 12:42:39;;;;;;;57.33;2.37;;;11.90;1.60;;;;;;5112348;28;20473;-65
2021/05/07 12:45:06;;;;;;;58.97;2.63;;;11.50;4.70;;;;;;5112369;28;21031;-65
2021/05/07 12:47:33;;;;;;;57.17;2.33;;;11.30;6.20;;;;;;5112731;28;21013;-65